sensor_id;sensor_type;location;lat;lon;timestamp;temperature;humidity
35960;DHT22;22043;50.970;7.192;2022-08-14T00:00:26;21.40;90.30
35960;DHT22;22043;50.970;7.192;2022-08-14T00:02:52;21.40;90.40
35960;DHT22;22043;50.970;7.192;2022-08-14T00:05:19;21.30;90.90
35960;DHT22;22043;50.970;7.192;2022-08-14T00:07:46;21.30;90.70
35960;DHT22;22043;50.970;7.192;2022-08-14T00:10:18;21.30;91.10
35960;DHT22;22043;50.970;7.192;2022-08-14T00:12:52;21.30;90.80
35960;DHT22;22043;50.970;7.192;2022-08-14T00:15:21;21.30;90.80
35960;DHT22;22043;50.970;7.192;2022-08-14T00:17:49;21.30;90.90
35960;DHT22;22043;50.970;7.192;2022-08-14T00:20:16;21.30;91.10
35960;DHT22;22043;50.970;7.192;2022-08-14T00:22:42;21.30;91.20
35960;DHT22;22043;50.970;7.192;2022-08-14T00:25:09;21.30;91.20
35960;DHT22;22043;50.970;7.192;2022-08-14T00:27:35;21.30;91.30
35960;DHT22;22043;50.970;7.192;2022-08-14T00:30:01;21.20;91.70
35960;DHT22;22043;50.970;7.192;2022-08-14T00:32:26;21.20;91.80
35960;DHT22;22043;50.970;7.192;2022-08-14T00:34:52;21.20;91.80
35960;DHT22;22043;50.970;7.192;2022-08-14T00:37:18;21.20;91.70
35960;DHT22;22043;50.970;7.192;2022-08-14T00:39:43;21.10;92.10
35960;DHT22;22043;50.970;7.192;2022-08-14T00:42:09;21.10;92.60
35960;DHT22;22043;50.970;7.192;2022-08-14T00:44:35;21.10;92.50
35960;DHT22;22043;50.970;7.192;2022-08-14T00:47:02;21.10;92.30
35960;DHT22;22043;50.970;7.192;2022-08-14T00:49:30;21.10;92.40
35960;DHT22;22043;50.970;7.192;2022-08-14T00:51:57;21.10;92.60
35960;DHT22;22043;50.970;7.192;2022-08-14T00:54:25;21.10;92.80
35960;DHT22;22043;50.970;7.192;2022-08-14T00:56:51;21.10;92.70
35960;DHT22;22043;50.970;7.192;2022-08-14T00:59:17;21.10;92.80
35960;DHT22;22043;50.970;7.192;2022-08-14T01:01:44;21.10;92.80
35960;DHT22;22043;50.970;7.192;2022-08-14T01:04:10;21.00;92.90
35960;DHT22;22043;50.970;7.192;2022-08-14T01:06:36;21.00;93.10
35960;DHT22;22043;50.970;7.192;2022-08-14T01:09:02;21.00;93.00
35960;DHT22;22043;50.970;7.192;2022-08-14T01:11:29;21.10;93.10
35960;DHT22;22043;50.970;7.192;2022-08-14T01:13:55;21.00;93.60
35960;DHT22;22043;50.970;7.192;2022-08-14T01:16:26;21.00;93.80
35960;DHT22;22043;50.970;7.192;2022-08-14T01:18:52;21.00;93.60
35960;DHT22;22043;50.970;7.192;2022-08-14T01:21:38;21.00;93.50
35960;DHT22;22043;50.970;7.192;2022-08-14T01:24:06;21.00;93.40
35960;DHT22;22043;50.970;7.192;2022-08-14T01:26:33;21.00;93.50
35960;DHT22;22043;50.970;7.192;2022-08-14T01:29:01;21.00;94.00
35960;DHT22;22043;50.970;7.192;2022-08-14T01:31:31;21.00;94.00
35960;DHT22;22043;50.970;7.192;2022-08-14T01:34:01;21.00;93.80
35960;DHT22;22043;50.970;7.192;2022-08-14T01:36:28;21.00;93.80
35960;DHT22;22043;50.970;7.192;2022-08-14T01:39:16;21.00;93.90
35960;DHT22;22043;50.970;7.192;2022-08-14T01:41:44;21.00;94.00
35960;DHT22;22043;50.970;7.192;2022-08-14T01:44:14;21.00;94.10
35960;DHT22;22043;50.970;7.192;2022-08-14T01:46:42;21.00;94.30
35960;DHT22;22043;50.970;7.192;2022-08-14T01:49:13;21.00;94.30
35960;DHT22;22043;50.970;7.192;2022-08-14T01:51:40;20.90;94.30
35960;DHT22;22043;50.970;7.192;2022-08-14T01:54:15;21.00;94.30
35960;DHT22;22043;50.970;7.192;2022-08-14T01:56:43;20.90;94.70
35960;DHT22;22043;50.970;7.192;2022-08-14T01:59:20;20.90;94.70
35960;DHT22;22043;50.970;7.192;2022-08-14T02:01:48;20.90;94.60
35960;DHT22;22043;50.970;7.192;2022-08-14T02:04:15;21.00;94.70
35960;DHT22;22043;50.970;7.192;2022-08-14T02:06:41;20.90;94.70
35960;DHT22;22043;50.970;7.192;2022-08-14T02:09:08;21.00;94.80
35960;DHT22;22043;50.970;7.192;2022-08-14T02:11:34;21.00;94.80
35960;DHT22;22043;50.970;7.192;2022-08-14T02:14:03;20.90;94.90
35960;DHT22;22043;50.970;7.192;2022-08-14T02:16:33;20.90;95.10
35960;DHT22;22043;50.970;7.192;2022-08-14T02:19:06;20.90;95.40
35960;DHT22;22043;50.970;7.192;2022-08-14T02:21:32;20.90;95.10
35960;DHT22;22043;50.970;7.192;2022-08-14T02:24:00;20.90;95.30
35960;DHT22;22043;50.970;7.192;2022-08-14T02:26:29;20.90;95.20
35960;DHT22;22043;50.970;7.192;2022-08-14T02:29:01;20.80;95.50
35960;DHT22;22043;50.970;7.192;2022-08-14T02:31:33;20.80;95.30
35960;DHT22;22043;50.970;7.192;2022-08-14T02:34:09;20.90;95.60
35960;DHT22;22043;50.970;7.192;2022-08-14T02:36:39;20.80;95.90
35960;DHT22;22043;50.970;7.192;2022-08-14T02:39:07;20.80;95.70
35960;DHT22;22043;50.970;7.192;2022-08-14T02:41:34;20.80;96.00
35960;DHT22;22043;50.970;7.192;2022-08-14T02:44:02;20.80;95.80
35960;DHT22;22043;50.970;7.192;2022-08-14T02:46:28;20.80;95.90
35960;DHT22;22043;50.970;7.192;2022-08-14T02:48:56;20.80;95.90
35960;DHT22;22043;50.970;7.192;2022-08-14T02:51:22;20.80;95.90
35960;DHT22;22043;50.970;7.192;2022-08-14T02:53:48;20.80;96.00
35960;DHT22;22043;50.970;7.192;2022-08-14T02:56:17;20.80;96.10
35960;DHT22;22043;50.970;7.192;2022-08-14T02:58:48;20.70;96.10
35960;DHT22;22043;50.970;7.192;2022-08-14T03:01:17;20.70;96.20
35960;DHT22;22043;50.970;7.192;2022-08-14T03:03:44;20.70;96.20
35960;DHT22;22043;50.970;7.192;2022-08-14T03:06:11;20.70;96.40
35960;DHT22;22043;50.970;7.192;2022-08-14T03:08:38;20.70;96.60
35960;DHT22;22043;50.970;7.192;2022-08-14T03:11:06;20.70;96.70
35960;DHT22;22043;50.970;7.192;2022-08-14T03:13:39;20.60;96.60
35960;DHT22;22043;50.970;7.192;2022-08-14T03:16:08;20.60;97.10
35960;DHT22;22043;50.970;7.192;2022-08-14T03:18:37;20.60;97.20
35960;DHT22;22043;50.970;7.192;2022-08-14T03:21:08;20.50;97.50
35960;DHT22;22043;50.970;7.192;2022-08-14T03:23:35;20.60;97.20
35960;DHT22;22043;50.970;7.192;2022-08-14T03:26:02;20.60;97.10
35960;DHT22;22043;50.970;7.192;2022-08-14T03:28:29;20.50;97.30
35960;DHT22;22043;50.970;7.192;2022-08-14T03:30:58;20.50;97.30
35960;DHT22;22043;50.970;7.192;2022-08-14T03:33:25;20.50;97.30
35960;DHT22;22043;50.970;7.192;2022-08-14T03:35:52;20.50;97.80
35960;DHT22;22043;50.970;7.192;2022-08-14T03:38:17;20.50;97.60
35960;DHT22;22043;50.970;7.192;2022-08-14T03:40:44;20.50;97.60
35960;DHT22;22043;50.970;7.192;2022-08-14T03:43:12;20.40;97.60
35960;DHT22;22043;50.970;7.192;2022-08-14T03:45:39;20.40;97.80
35960;DHT22;22043;50.970;7.192;2022-08-14T03:48:13;20.40;98.00
35960;DHT22;22043;50.970;7.192;2022-08-14T03:50:48;20.40;98.40
35960;DHT22;22043;50.970;7.192;2022-08-14T03:53:16;20.30;98.50
35960;DHT22;22043;50.970;7.192;2022-08-14T03:55:43;20.30;98.50
35960;DHT22;22043;50.970;7.192;2022-08-14T03:58:09;20.20;98.70
35960;DHT22;22043;50.970;7.192;2022-08-14T04:00:35;20.20;98.90
35960;DHT22;22043;50.970;7.192;2022-08-14T04:03:03;20.20;99.20
35960;DHT22;22043;50.970;7.192;2022-08-14T04:05:30;20.10;99.40
35960;DHT22;22043;50.970;7.192;2022-08-14T04:07:56;20.10;99.20
35960;DHT22;22043;50.970;7.192;2022-08-14T04:10:23;20.10;99.90
35960;DHT22;22043;50.970;7.192;2022-08-14T04:12:48;20.00;99.80
35960;DHT22;22043;50.970;7.192;2022-08-14T04:15:15;20.10;99.50
35960;DHT22;22043;50.970;7.192;2022-08-14T04:17:44;20.10;99.70
35960;DHT22;22043;50.970;7.192;2022-08-14T04:20:10;20.10;99.90
35960;DHT22;22043;50.970;7.192;2022-08-14T04:22:37;20.10;99.80
35960;DHT22;22043;50.970;7.192;2022-08-14T04:25:07;20.10;99.80
35960;DHT22;22043;50.970;7.192;2022-08-14T04:27:33;20.10;99.90
35960;DHT22;22043;50.970;7.192;2022-08-14T04:30:00;20.10;99.90
35960;DHT22;22043;50.970;7.192;2022-08-14T04:32:26;20.10;99.90
35960;DHT22;22043;50.970;7.192;2022-08-14T04:34:52;20.10;99.90
35960;DHT22;22043;50.970;7.192;2022-08-14T04:37:23;20.10;99.90
35960;DHT22;22043;50.970;7.192;2022-08-14T04:40:09;20.10;99.90
35960;DHT22;22043;50.970;7.192;2022-08-14T04:42:54;20.10;99.90
35960;DHT22;22043;50.970;7.192;2022-08-14T04:45:39;20.10;99.90
35960;DHT22;22043;50.970;7.192;2022-08-14T04:48:13;20.10;99.90
35960;DHT22;22043;50.970;7.192;2022-08-14T04:50:50;20.10;99.90
35960;DHT22;22043;50.970;7.192;2022-08-14T04:53:18;20.10;99.90
35960;DHT22;22043;50.970;7.192;2022-08-14T04:55:45;20.10;99.90
35960;DHT22;22043;50.970;7.192;2022-08-14T04:58:19;20.20;99.90
35960;DHT22;22043;50.970;7.192;2022-08-14T05:00:47;20.20;99.90
35960;DHT22;22043;50.970;7.192;2022-08-14T05:03:27;20.20;99.90
35960;DHT22;22043;50.970;7.192;2022-08-14T05:05:55;20.20;99.90
35960;DHT22;22043;50.970;7.192;2022-08-14T05:08:21;20.20;99.90
35960;DHT22;22043;50.970;7.192;2022-08-14T05:10:53;20.20;99.90
35960;DHT22;22043;50.970;7.192;2022-08-14T05:13:21;20.20;99.90
35960;DHT22;22043;50.970;7.192;2022-08-14T05:15:48;20.20;99.90
35960;DHT22;22043;50.970;7.192;2022-08-14T05:18:21;20.20;99.90
35960;DHT22;22043;50.970;7.192;2022-08-14T05:20:51;20.30;99.90
35960;DHT22;22043;50.970;7.192;2022-08-14T05:23:19;20.30;99.90
35960;DHT22;22043;50.970;7.192;2022-08-14T05:25:46;20.30;99.90
35960;DHT22;22043;50.970;7.192;2022-08-14T05:28:23;20.30;99.90
35960;DHT22;22043;50.970;7.192;2022-08-14T05:30:53;20.40;99.90
35960;DHT22;22043;50.970;7.192;2022-08-14T05:33:21;20.30;99.90
35960;DHT22;22043;50.970;7.192;2022-08-14T05:35:50;20.40;99.90
35960;DHT22;22043;50.970;7.192;2022-08-14T05:38:17;20.40;99.90
35960;DHT22;22043;50.970;7.192;2022-08-14T05:40:43;20.40;99.90
35960;DHT22;22043;50.970;7.192;2022-08-14T05:43:09;20.40;99.90
35960;DHT22;22043;50.970;7.192;2022-08-14T05:45:35;20.40;99.90
35960;DHT22;22043;50.970;7.192;2022-08-14T05:48:02;20.50;99.90
35960;DHT22;22043;50.970;7.192;2022-08-14T05:50:29;20.50;99.90
35960;DHT22;22043;50.970;7.192;2022-08-14T05:52:55;20.50;99.90
35960;DHT22;22043;50.970;7.192;2022-08-14T05:55:21;20.50;99.90
35960;DHT22;22043;50.970;7.192;2022-08-14T05:57:52;20.50;99.90
35960;DHT22;22043;50.970;7.192;2022-08-14T06:00:22;20.60;99.90
35960;DHT22;22043;50.970;7.192;2022-08-14T06:02:48;20.60;99.90
35960;DHT22;22043;50.970;7.192;2022-08-14T06:05:13;20.60;99.90
35960;DHT22;22043;50.970;7.192;2022-08-14T06:07:39;20.70;99.90
35960;DHT22;22043;50.970;7.192;2022-08-14T06:10:07;20.60;99.90
35960;DHT22;22043;50.970;7.192;2022-08-14T06:12:33;20.70;99.90
35960;DHT22;22043;50.970;7.192;2022-08-14T06:14:59;20.70;99.90
35960;DHT22;22043;50.970;7.192;2022-08-14T06:17:25;20.70;99.90
35960;DHT22;22043;50.970;7.192;2022-08-14T06:19:51;20.70;99.90
35960;DHT22;22043;50.970;7.192;2022-08-14T06:22:17;20.80;99.90
35960;DHT22;22043;50.970;7.192;2022-08-14T06:24:43;20.80;99.90
35960;DHT22;22043;50.970;7.192;2022-08-14T06:27:09;20.80;99.90
35960;DHT22;22043;50.970;7.192;2022-08-14T06:29:35;20.90;99.90
35960;DHT22;22043;50.970;7.192;2022-08-14T06:32:03;20.90;99.90
35960;DHT22;22043;50.970;7.192;2022-08-14T06:34:29;21.00;99.90
35960;DHT22;22043;50.970;7.192;2022-08-14T06:36:54;21.00;99.90
35960;DHT22;22043;50.970;7.192;2022-08-14T06:39:22;21.00;99.90
35960;DHT22;22043;50.970;7.192;2022-08-14T06:41:48;21.10;99.90
35960;DHT22;22043;50.970;7.192;2022-08-14T06:44:13;21.10;99.90
35960;DHT22;22043;50.970;7.192;2022-08-14T06:46:39;21.10;99.90
35960;DHT22;22043;50.970;7.192;2022-08-14T06:49:05;21.10;99.90
35960;DHT22;22043;50.970;7.192;2022-08-14T06:51:31;21.10;99.90
35960;DHT22;22043;50.970;7.192;2022-08-14T06:53:57;21.20;99.90
35960;DHT22;22043;50.970;7.192;2022-08-14T06:56:23;21.20;99.90
35960;DHT22;22043;50.970;7.192;2022-08-14T06:58:49;21.20;99.90
35960;DHT22;22043;50.970;7.192;2022-08-14T07:01:14;21.20;99.90
35960;DHT22;22043;50.970;7.192;2022-08-14T07:03:59;21.30;99.90
35960;DHT22;22043;50.970;7.192;2022-08-14T07:06:43;21.30;99.90
35960;DHT22;22043;50.970;7.192;2022-08-14T07:09:09;21.40;99.90
35960;DHT22;22043;50.970;7.192;2022-08-14T07:11:35;21.50;99.90
35960;DHT22;22043;50.970;7.192;2022-08-14T07:14:01;21.50;99.90
35960;DHT22;22043;50.970;7.192;2022-08-14T07:16:27;21.50;99.90
35960;DHT22;22043;50.970;7.192;2022-08-14T07:18:53;21.50;99.90
35960;DHT22;22043;50.970;7.192;2022-08-14T07:21:18;21.60;99.90
35960;DHT22;22043;50.970;7.192;2022-08-14T07:23:44;21.60;99.90
35960;DHT22;22043;50.970;7.192;2022-08-14T07:26:10;21.70;99.90
35960;DHT22;22043;50.970;7.192;2022-08-14T07:28:38;21.70;99.90
35960;DHT22;22043;50.970;7.192;2022-08-14T07:31:07;21.80;99.90
35960;DHT22;22043;50.970;7.192;2022-08-14T07:33:43;21.80;99.90
35960;DHT22;22043;50.970;7.192;2022-08-14T07:36:11;21.80;99.90
35960;DHT22;22043;50.970;7.192;2022-08-14T07:38:37;21.90;99.90
35960;DHT22;22043;50.970;7.192;2022-08-14T07:41:06;21.90;99.90
35960;DHT22;22043;50.970;7.192;2022-08-14T07:43:32;22.00;99.90
35960;DHT22;22043;50.970;7.192;2022-08-14T07:45:57;22.00;99.90
35960;DHT22;22043;50.970;7.192;2022-08-14T07:48:23;22.10;99.90
35960;DHT22;22043;50.970;7.192;2022-08-14T07:50:49;22.10;99.80
35960;DHT22;22043;50.970;7.192;2022-08-14T07:53:16;22.10;99.70
35960;DHT22;22043;50.970;7.192;2022-08-14T07:55:42;22.10;99.90
35960;DHT22;22043;50.970;7.192;2022-08-14T07:58:11;22.10;99.70
35960;DHT22;22043;50.970;7.192;2022-08-14T08:00:37;22.10;99.40
35960;DHT22;22043;50.970;7.192;2022-08-14T08:03:06;22.10;99.90
35960;DHT22;22043;50.970;7.192;2022-08-14T08:05:38;22.10;99.90
35960;DHT22;22043;50.970;7.192;2022-08-14T08:08:06;22.10;99.90
35960;DHT22;22043;50.970;7.192;2022-08-14T08:10:32;22.20;99.90
35960;DHT22;22043;50.970;7.192;2022-08-14T08:13:06;22.20;99.70
35960;DHT22;22043;50.970;7.192;2022-08-14T08:15:37;22.30;99.30
35960;DHT22;22043;50.970;7.192;2022-08-14T08:18:05;22.40;99.20
35960;DHT22;22043;50.970;7.192;2022-08-14T08:20:34;22.40;98.90
35960;DHT22;22043;50.970;7.192;2022-08-14T08:23:01;22.40;99.00
35960;DHT22;22043;50.970;7.192;2022-08-14T08:25:33;22.40;99.10
35960;DHT22;22043;50.970;7.192;2022-08-14T08:28:01;22.40;98.80
35960;DHT22;22043;50.970;7.192;2022-08-14T08:30:29;22.40;98.90
35960;DHT22;22043;50.970;7.192;2022-08-14T08:32:58;22.50;98.90
35960;DHT22;22043;50.970;7.192;2022-08-14T08:35:26;22.40;98.70
35960;DHT22;22043;50.970;7.192;2022-08-14T08:37:53;22.40;98.30
35960;DHT22;22043;50.970;7.192;2022-08-14T08:40:28;22.40;98.00
35960;DHT22;22043;50.970;7.192;2022-08-14T08:42:54;22.50;98.40
35960;DHT22;22043;50.970;7.192;2022-08-14T08:45:20;22.50;98.10
35960;DHT22;22043;50.970;7.192;2022-08-14T08:47:47;22.50;98.40
35960;DHT22;22043;50.970;7.192;2022-08-14T08:50:29;22.50;97.60
35960;DHT22;22043;50.970;7.192;2022-08-14T08:52:58;22.60;97.00
35960;DHT22;22043;50.970;7.192;2022-08-14T08:58:02;22.60;96.30
35960;DHT22;22043;50.970;7.192;2022-08-14T09:00:29;22.70;96.20
35960;DHT22;22043;50.970;7.192;2022-08-14T09:03:09;22.70;95.80
35960;DHT22;22043;50.970;7.192;2022-08-14T09:05:37;22.70;95.90
35960;DHT22;22043;50.970;7.192;2022-08-14T09:08:15;22.80;96.20
35960;DHT22;22043;50.970;7.192;2022-08-14T09:10:41;22.80;96.00
35960;DHT22;22043;50.970;7.192;2022-08-14T09:13:06;22.80;95.60
35960;DHT22;22043;50.970;7.192;2022-08-14T09:15:32;22.80;95.70
35960;DHT22;22043;50.970;7.192;2022-08-14T09:17:58;22.90;95.50
35960;DHT22;22043;50.970;7.192;2022-08-14T09:20:24;22.90;95.10
35960;DHT22;22043;50.970;7.192;2022-08-14T09:22:51;23.00;94.60
35960;DHT22;22043;50.970;7.192;2022-08-14T09:25:18;23.10;94.70
35960;DHT22;22043;50.970;7.192;2022-08-14T09:27:44;23.10;94.20
35960;DHT22;22043;50.970;7.192;2022-08-14T09:30:11;23.20;94.50
35960;DHT22;22043;50.970;7.192;2022-08-14T09:35:46;23.20;94.40
35960;DHT22;22043;50.970;7.192;2022-08-14T09:44:05;23.20;92.90
35960;DHT22;22043;50.970;7.192;2022-08-14T09:46:33;23.00;93.30
35960;DHT22;22043;50.970;7.192;2022-08-14T09:49:01;22.80;93.50
35960;DHT22;22043;50.970;7.192;2022-08-14T09:51:28;22.70;93.90
35960;DHT22;22043;50.970;7.192;2022-08-14T09:54:03;22.60;94.10
35960;DHT22;22043;50.970;7.192;2022-08-14T09:56:45;22.60;93.80
35960;DHT22;22043;50.970;7.192;2022-08-14T09:59:13;22.60;94.30
35960;DHT22;22043;50.970;7.192;2022-08-14T10:01:39;22.70;94.50
35960;DHT22;22043;50.970;7.192;2022-08-14T10:04:23;22.70;94.30
35960;DHT22;22043;50.970;7.192;2022-08-14T10:06:50;22.70;94.50
35960;DHT22;22043;50.970;7.192;2022-08-14T10:09:17;22.70;94.10
35960;DHT22;22043;50.970;7.192;2022-08-14T10:11:54;22.70;94.00
35960;DHT22;22043;50.970;7.192;2022-08-14T10:14:21;22.70;94.10
35960;DHT22;22043;50.970;7.192;2022-08-14T10:16:54;22.70;93.70
35960;DHT22;22043;50.970;7.192;2022-08-14T10:19:25;22.70;93.50
35960;DHT22;22043;50.970;7.192;2022-08-14T10:22:03;22.70;93.70
35960;DHT22;22043;50.970;7.192;2022-08-14T10:24:41;22.70;93.70
35960;DHT22;22043;50.970;7.192;2022-08-14T10:27:18;22.80;93.70
35960;DHT22;22043;50.970;7.192;2022-08-14T10:29:52;23.00;92.60
35960;DHT22;22043;50.970;7.192;2022-08-14T10:32:19;23.20;92.00
35960;DHT22;22043;50.970;7.192;2022-08-14T10:34:47;23.20;91.80
35960;DHT22;22043;50.970;7.192;2022-08-14T10:37:14;23.30;91.90
35960;DHT22;22043;50.970;7.192;2022-08-14T10:39:43;23.20;92.10
35960;DHT22;22043;50.970;7.192;2022-08-14T10:42:13;23.10;92.60
35960;DHT22;22043;50.970;7.192;2022-08-14T10:44:44;23.00;92.60
35960;DHT22;22043;50.970;7.192;2022-08-14T10:47:15;22.90;92.70
35960;DHT22;22043;50.970;7.192;2022-08-14T10:49:58;22.90;92.70
35960;DHT22;22043;50.970;7.192;2022-08-14T10:52:27;23.20;91.70
35960;DHT22;22043;50.970;7.192;2022-08-14T10:55:08;23.20;91.60
35960;DHT22;22043;50.970;7.192;2022-08-14T10:57:47;23.10;91.80
35960;DHT22;22043;50.970;7.192;2022-08-14T11:00:16;23.10;92.10
35960;DHT22;22043;50.970;7.192;2022-08-14T11:02:42;23.10;92.00
35960;DHT22;22043;50.970;7.192;2022-08-14T11:05:10;23.10;91.80
35960;DHT22;22043;50.970;7.192;2022-08-14T11:07:53;23.10;91.90
35960;DHT22;22043;50.970;7.192;2022-08-14T11:10:20;23.00;92.40
35960;DHT22;22043;50.970;7.192;2022-08-14T11:12:51;22.90;92.50
35960;DHT22;22043;50.970;7.192;2022-08-14T11:15:20;22.90;92.90
35960;DHT22;22043;50.970;7.192;2022-08-14T11:17:47;22.80;93.10
35960;DHT22;22043;50.970;7.192;2022-08-14T11:20:17;22.80;93.30
35960;DHT22;22043;50.970;7.192;2022-08-14T11:22:44;22.80;93.30
35960;DHT22;22043;50.970;7.192;2022-08-14T11:25:14;22.70;93.30
35960;DHT22;22043;50.970;7.192;2022-08-14T11:27:44;22.80;93.00
35960;DHT22;22043;50.970;7.192;2022-08-14T11:30:15;22.80;92.60
35960;DHT22;22043;50.970;7.192;2022-08-14T11:32:46;22.90;92.20
35960;DHT22;22043;50.970;7.192;2022-08-14T11:35:24;23.00;92.50
35960;DHT22;22043;50.970;7.192;2022-08-14T11:40:21;23.10;92.60
35960;DHT22;22043;50.970;7.192;2022-08-14T11:42:49;23.00;92.70
35960;DHT22;22043;50.970;7.192;2022-08-14T11:45:15;23.00;92.90
35960;DHT22;22043;50.970;7.192;2022-08-14T11:47:42;23.10;91.70
35960;DHT22;22043;50.970;7.192;2022-08-14T11:50:15;23.40;91.30
35960;DHT22;22043;50.970;7.192;2022-08-14T11:52:42;23.50;91.40
35960;DHT22;22043;50.970;7.192;2022-08-14T11:55:10;23.50;91.50
35960;DHT22;22043;50.970;7.192;2022-08-14T11:57:44;23.40;91.20
35960;DHT22;22043;50.970;7.192;2022-08-14T12:00:18;23.70;89.20
35960;DHT22;22043;50.970;7.192;2022-08-14T12:02:50;23.80;89.40
35960;DHT22;22043;50.970;7.192;2022-08-14T12:05:45;23.70;90.50
35960;DHT22;22043;50.970;7.192;2022-08-14T12:08:11;23.50;91.20
35960;DHT22;22043;50.970;7.192;2022-08-14T12:10:40;23.40;91.80
35960;DHT22;22043;50.970;7.192;2022-08-14T12:13:17;23.40;91.00
35960;DHT22;22043;50.970;7.192;2022-08-14T12:15:46;23.50;90.90
35960;DHT22;22043;50.970;7.192;2022-08-14T12:18:14;23.40;91.90
35960;DHT22;22043;50.970;7.192;2022-08-14T12:20:42;23.30;92.20
35960;DHT22;22043;50.970;7.192;2022-08-14T12:23:20;23.20;92.50
35960;DHT22;22043;50.970;7.192;2022-08-14T12:25:47;23.20;92.20
35960;DHT22;22043;50.970;7.192;2022-08-14T12:28:14;23.10;92.40
35960;DHT22;22043;50.970;7.192;2022-08-14T12:30:42;23.40;91.60
35960;DHT22;22043;50.970;7.192;2022-08-14T12:33:28;23.50;91.10
35960;DHT22;22043;50.970;7.192;2022-08-14T12:35:58;23.70;90.70
35960;DHT22;22043;50.970;7.192;2022-08-14T12:38:51;23.90;90.10
35960;DHT22;22043;50.970;7.192;2022-08-14T12:41:20;23.70;91.40
35960;DHT22;22043;50.970;7.192;2022-08-14T12:43:49;23.60;91.40
35960;DHT22;22043;50.970;7.192;2022-08-14T12:46:26;23.70;88.70
35960;DHT22;22043;50.970;7.192;2022-08-14T12:48:53;23.90;87.00
35960;DHT22;22043;50.970;7.192;2022-08-14T12:51:20;23.90;88.60
35960;DHT22;22043;50.970;7.192;2022-08-14T12:53:48;23.90;90.10
35960;DHT22;22043;50.970;7.192;2022-08-14T12:56:18;23.80;90.50
35960;DHT22;22043;50.970;7.192;2022-08-14T12:58:55;23.60;91.10
35960;DHT22;22043;50.970;7.192;2022-08-14T13:01:25;23.50;91.30
35960;DHT22;22043;50.970;7.192;2022-08-14T13:04:11;23.40;91.60
35960;DHT22;22043;50.970;7.192;2022-08-14T13:06:39;23.70;90.60
35960;DHT22;22043;50.970;7.192;2022-08-14T13:09:07;23.70;90.80
35960;DHT22;22043;50.970;7.192;2022-08-14T13:11:44;23.60;91.40
35960;DHT22;22043;50.970;7.192;2022-08-14T13:14:13;23.40;91.50
35960;DHT22;22043;50.970;7.192;2022-08-14T13:16:41;23.40;91.80
35960;DHT22;22043;50.970;7.192;2022-08-14T13:19:12;23.30;91.50
35960;DHT22;22043;50.970;7.192;2022-08-14T13:21:41;23.30;91.80
35960;DHT22;22043;50.970;7.192;2022-08-14T13:24:08;23.20;92.20
35960;DHT22;22043;50.970;7.192;2022-08-14T13:26:42;23.10;92.20
35960;DHT22;22043;50.970;7.192;2022-08-14T13:29:09;23.00;92.40
35960;DHT22;22043;50.970;7.192;2022-08-14T13:31:36;22.90;92.60
35960;DHT22;22043;50.970;7.192;2022-08-14T13:34:04;22.90;93.00
35960;DHT22;22043;50.970;7.192;2022-08-14T13:36:31;22.80;92.80
35960;DHT22;22043;50.970;7.192;2022-08-14T13:38:58;22.80;93.00
35960;DHT22;22043;50.970;7.192;2022-08-14T13:41:26;22.80;93.10
35960;DHT22;22043;50.970;7.192;2022-08-14T13:43:52;22.80;93.10
35960;DHT22;22043;50.970;7.192;2022-08-14T13:46:20;22.80;93.10
35960;DHT22;22043;50.970;7.192;2022-08-14T13:48:47;22.80;93.10
35960;DHT22;22043;50.970;7.192;2022-08-14T13:51:15;22.90;93.10
35960;DHT22;22043;50.970;7.192;2022-08-14T13:53:48;23.00;92.70
35960;DHT22;22043;50.970;7.192;2022-08-14T13:56:15;23.00;92.80
35960;DHT22;22043;50.970;7.192;2022-08-14T13:58:44;22.90;93.00
35960;DHT22;22043;50.970;7.192;2022-08-14T14:01:14;22.90;93.10
35960;DHT22;22043;50.970;7.192;2022-08-14T14:03:43;22.90;93.10
35960;DHT22;22043;50.970;7.192;2022-08-14T14:06:12;23.00;93.10
35960;DHT22;22043;50.970;7.192;2022-08-14T14:08:44;23.00;93.30
35960;DHT22;22043;50.970;7.192;2022-08-14T14:11:12;23.00;93.00
35960;DHT22;22043;50.970;7.192;2022-08-14T14:13:38;23.10;92.50
35960;DHT22;22043;50.970;7.192;2022-08-14T14:16:05;23.20;92.20
35960;DHT22;22043;50.970;7.192;2022-08-14T14:18:34;23.20;92.60
35960;DHT22;22043;50.970;7.192;2022-08-14T14:21:03;23.40;91.80
35960;DHT22;22043;50.970;7.192;2022-08-14T14:23:33;23.50;91.90
35960;DHT22;22043;50.970;7.192;2022-08-14T14:25:59;23.50;92.20
35960;DHT22;22043;50.970;7.192;2022-08-14T14:28:30;23.50;90.70
35960;DHT22;22043;50.970;7.192;2022-08-14T14:30:56;23.70;90.70
35960;DHT22;22043;50.970;7.192;2022-08-14T14:33:23;23.70;91.20
35960;DHT22;22043;50.970;7.192;2022-08-14T14:35:49;23.60;91.80
35960;DHT22;22043;50.970;7.192;2022-08-14T14:38:16;23.50;92.00
35960;DHT22;22043;50.970;7.192;2022-08-14T14:40:44;23.80;90.70
35960;DHT22;22043;50.970;7.192;2022-08-14T14:43:12;24.00;90.00
35960;DHT22;22043;50.970;7.192;2022-08-14T14:45:39;24.10;90.10
35960;DHT22;22043;50.970;7.192;2022-08-14T14:48:08;24.00;90.70
35960;DHT22;22043;50.970;7.192;2022-08-14T14:50:34;23.90;91.00
35960;DHT22;22043;50.970;7.192;2022-08-14T14:53:03;23.80;91.30
35960;DHT22;22043;50.970;7.192;2022-08-14T14:55:30;23.70;91.60
35960;DHT22;22043;50.970;7.192;2022-08-14T14:57:58;23.60;91.90
35960;DHT22;22043;50.970;7.192;2022-08-14T15:00:24;23.50;91.70
35960;DHT22;22043;50.970;7.192;2022-08-14T15:02:52;23.50;92.20
35960;DHT22;22043;50.970;7.192;2022-08-14T15:05:18;23.40;92.20
35960;DHT22;22043;50.970;7.192;2022-08-14T15:07:45;23.30;92.20
35960;DHT22;22043;50.970;7.192;2022-08-14T15:10:13;23.20;92.30
35960;DHT22;22043;50.970;7.192;2022-08-14T15:12:39;23.10;92.20
35960;DHT22;22043;50.970;7.192;2022-08-14T15:15:06;23.10;92.30
35960;DHT22;22043;50.970;7.192;2022-08-14T15:17:32;23.10;92.10
35960;DHT22;22043;50.970;7.192;2022-08-14T15:20:06;23.00;92.40
35960;DHT22;22043;50.970;7.192;2022-08-14T15:22:36;23.00;92.70
35960;DHT22;22043;50.970;7.192;2022-08-14T15:25:03;22.90;92.80
35960;DHT22;22043;50.970;7.192;2022-08-14T15:27:29;22.90;93.00
35960;DHT22;22043;50.970;7.192;2022-08-14T15:29:57;22.80;93.40
35960;DHT22;22043;50.970;7.192;2022-08-14T15:32:23;22.70;99.90
35960;DHT22;22043;50.970;7.192;2022-08-14T15:34:49;22.40;99.90
35960;DHT22;22043;50.970;7.192;2022-08-14T15:37:15;21.90;99.90
35960;DHT22;22043;50.970;7.192;2022-08-14T15:39:41;21.50;99.90
35960;DHT22;22043;50.970;7.192;2022-08-14T15:42:07;21.20;99.90
35960;DHT22;22043;50.970;7.192;2022-08-14T15:44:34;21.00;99.90
35960;DHT22;22043;50.970;7.192;2022-08-14T15:47:00;20.90;99.90
35960;DHT22;22043;50.970;7.192;2022-08-14T15:49:26;20.80;99.90
35960;DHT22;22043;50.970;7.192;2022-08-14T15:51:54;20.80;99.90
35960;DHT22;22043;50.970;7.192;2022-08-14T15:54:26;20.90;99.90